createdAt,value
2018-12-25T00:01:43.328Z,93.43
2018-12-25T00:04:12.004Z,93.53
2018-12-25T00:06:40.729Z,92.88
2018-12-25T00:09:09.505Z,92.85
2018-12-25T00:11:38.245Z,92.79
2018-12-25T00:14:06.835Z,93.17
2018-12-25T00:16:35.451Z,93.78
2018-12-25T00:19:06.242Z,92.98
2018-12-25T00:21:34.542Z,93.24
2018-12-25T00:24:03.252Z,93.68
2018-12-25T00:26:31.948Z,93.37
2018-12-25T00:29:00.537Z,93.79
2018-12-25T00:31:29.172Z,92.89
2018-12-25T00:33:57.829Z,92.98
2018-12-25T00:36:26.592Z,94.09
2018-12-25T00:38:55.279Z,93.52
2018-12-25T00:41:23.868Z,92.97
2018-12-25T00:43:52.632Z,93.64
2018-12-25T00:46:21.344Z,92.88
2018-12-25T00:48:50.012Z,93.24
2018-12-25T00:51:18.614Z,94.21
2018-12-25T00:53:47.315Z,94.23
2018-12-25T00:56:15.980Z,93.88
2018-12-25T00:58:44.562Z,93.69
2018-12-25T01:01:13.265Z,93.14
2018-12-25T01:03:41.905Z,92.58
2018-12-25T01:06:10.835Z,92.74
2018-12-25T01:08:39.452Z,92.40
2018-12-25T01:11:08.191Z,92.31
2018-12-25T01:13:36.749Z,92.17
2018-12-25T01:16:05.444Z,91.88
2018-12-25T01:18:34.032Z,91.69
2018-12-25T01:21:02.759Z,92.36
2018-12-25T01:23:31.448Z,91.47
2018-12-25T01:26:00.097Z,93.26
2018-12-25T01:28:28.867Z,91.94
2018-12-25T01:30:57.463Z,92.51
2018-12-25T01:33:26.045Z,93.67
2018-12-25T01:35:54.768Z,93.08
2018-12-25T01:38:23.428Z,92.43
2018-12-25T01:40:52.061Z,92.06
2018-12-25T01:43:20.712Z,91.52
2018-12-25T01:45:49.328Z,92.35
2018-12-25T01:48:18.044Z,92.79
2018-12-25T01:50:46.753Z,92.73
2018-12-25T01:53:15.372Z,92.98
2018-12-25T01:55:44.031Z,92.61
2018-12-25T01:58:12.797Z,93.04
2018-12-25T02:00:41.698Z,93.99
2018-12-25T02:03:10.457Z,95.15
2018-12-25T02:05:39.045Z,94.76
2018-12-25T02:08:07.815Z,93.24
2018-12-25T02:10:36.531Z,93.29
2018-12-25T02:13:05.268Z,92.57
2018-12-25T02:15:33.967Z,92.51
2018-12-25T02:18:02.552Z,92.08
2018-12-25T02:20:31.129Z,92.26
2018-12-25T02:22:59.749Z,92.03
2018-12-25T02:25:28.553Z,91.91
2018-12-25T02:27:57.131Z,91.74
2018-12-25T02:30:25.905Z,92.24
2018-12-25T02:32:54.740Z,92.42
2018-12-25T02:35:23.328Z,92.08
2018-12-25T02:37:52.032Z,90.57
2018-12-25T02:40:20.608Z,91.38
2018-12-25T02:42:49.206Z,92.04
2018-12-25T02:45:17.902Z,92.73
2018-12-25T02:47:46.509Z,93.14
2018-12-25T02:50:15.110Z,92.31
2018-12-25T02:52:43.730Z,91.52
2018-12-25T02:55:12.330Z,91.63
2018-12-25T02:57:40.929Z,92.35
2018-12-25T03:00:09.850Z,92.39
2018-12-25T03:02:38.593Z,93.15
2018-12-25T03:05:07.322Z,93.74
2018-12-25T03:07:36.048Z,93.69
2018-12-25T03:10:08.077Z,92.22
2018-12-25T03:12:36.654Z,91.72
2018-12-25T03:15:06.141Z,92.55
2018-12-25T03:17:34.795Z,93.09
2018-12-25T03:20:04.213Z,93.50
2018-12-25T03:22:32.973Z,93.18
2018-12-25T03:25:01.623Z,91.70
2018-12-25T03:27:30.273Z,91.69
2018-12-25T03:29:58.897Z,93.11
2018-12-25T03:32:27.624Z,93.14
2018-12-25T03:34:56.209Z,93.05
2018-12-25T03:37:24.999Z,92.52
2018-12-25T03:39:53.650Z,91.45
2018-12-25T03:42:22.246Z,91.95
2018-12-25T03:44:50.856Z,92.40
2018-12-25T03:47:19.486Z,92.36
2018-12-25T03:49:48.140Z,93.08
2018-12-25T03:52:16.789Z,92.63
2018-12-25T03:54:45.505Z,92.69
2018-12-25T03:57:14.108Z,92.68
2018-12-25T03:59:42.803Z,93.12
2018-12-25T04:02:11.414Z,93.22
2018-12-25T04:04:40.134Z,92.84
2018-12-25T04:07:08.753Z,92.38
2018-12-25T04:09:37.337Z,92.18
2018-12-25T04:12:05.924Z,92.12
2018-12-25T04:14:34.650Z,91.91
2018-12-25T04:17:03.242Z,92.72
2018-12-25T04:19:31.892Z,91.96
2018-12-25T04:22:00.601Z,92.25
2018-12-25T04:24:29.187Z,91.70
2018-12-25T04:26:57.836Z,92.79
2018-12-25T04:32:39.462Z,91.92
2018-12-25T04:35:27.376Z,91.62
2018-12-25T04:37:55.955Z,92.10
2018-12-25T04:43:31.291Z,91.51
2018-12-25T04:45:59.890Z,92.29
2018-12-25T04:48:47.639Z,91.19
2018-12-25T04:54:23.062Z,92.47
2018-12-25T04:57:10.989Z,92.74
2018-12-25T04:59:58.908Z,91.77
2018-12-25T05:02:46.808Z,92.43
2018-12-25T05:05:34.755Z,91.89
2018-12-25T05:08:22.532Z,92.38
2018-12-25T05:11:11.564Z,91.91
2018-12-25T05:13:59.492Z,90.83
2018-12-25T05:16:28.121Z,90.70
2018-12-25T05:18:56.729Z,90.66
2018-12-25T05:21:44.555Z,91.30
2018-12-25T05:24:32.566Z,91.28
2018-12-25T05:27:02.981Z,91.81
2018-12-25T05:29:31.564Z,91.20
2018-12-25T05:32:00.149Z,91.28
2018-12-25T05:34:47.961Z,91.22
2018-12-25T05:37:16.565Z,90.58
2018-12-25T05:39:45.158Z,90.06
2018-12-25T05:42:13.796Z,90.49
2018-12-25T05:45:01.695Z,90.25
2018-12-25T05:47:30.351Z,90.73
2018-12-25T05:50:18.242Z,91.71
2018-12-25T05:52:46.860Z,90.92
2018-12-25T05:55:34.638Z,91.78
2018-12-25T05:58:22.673Z,91.92
2018-12-25T06:01:10.481Z,90.83
2018-12-25T06:03:58.381Z,91.40
2018-12-25T06:06:27.011Z,91.42
2018-12-25T06:08:55.696Z,92.99
2018-12-25T06:16:54.890Z,91.30
2018-12-25T06:19:23.551Z,92.44
2018-12-25T06:21:52.204Z,92.33
2018-12-25T06:24:20.893Z,92.19
2018-12-25T06:26:49.476Z,91.99
2018-12-25T06:29:37.500Z,91.00
2018-12-25T06:32:25.496Z,91.48
2018-12-25T06:35:13.470Z,91.13
2018-12-25T06:37:42.048Z,91.22
2018-12-25T06:40:10.676Z,91.82
2018-12-25T06:42:58.580Z,91.04
2018-12-25T06:45:46.400Z,92.54
2018-12-25T06:48:34.175Z,92.05
2018-12-25T06:51:04.039Z,92.73
2018-12-25T06:53:33.106Z,91.25
2018-12-25T07:01:48.749Z,93.78
2018-12-25T07:04:36.472Z,94.45
2018-12-25T07:07:24.510Z,93.77
2018-12-25T07:09:53.104Z,93.20
2018-12-25T07:12:41.110Z,93.21
2018-12-25T07:15:09.760Z,92.85
2018-12-25T07:17:57.808Z,93.42
2018-12-25T07:20:45.712Z,93.63
2018-12-25T07:23:14.346Z,93.94
2018-12-25T07:26:02.249Z,94.13
2018-12-25T07:28:50.100Z,93.68
2018-12-25T07:31:38.092Z,95.81
2018-12-25T07:37:00.324Z,95.78
2018-12-25T07:39:48.217Z,95.18
2018-12-25T07:42:16.815Z,96.02
2018-12-25T07:45:04.733Z,95.62
2018-12-25T07:47:33.389Z,95.76
2018-12-25T07:52:55.663Z,95.40
2018-12-25T07:55:24.281Z,95.24
2018-12-25T07:58:12.279Z,95.07
2018-12-25T08:01:00.113Z,94.76
2018-12-25T08:03:48.038Z,95.27
2018-12-25T08:06:35.979Z,95.82
2018-12-25T08:09:44.489Z,96.01
2018-12-25T08:12:13.124Z,95.96
2018-12-25T08:14:41.703Z,95.65
2018-12-25T08:17:29.831Z,96.19
2018-12-25T08:19:58.422Z,96.25
2018-12-25T08:22:27.051Z,96.38
2018-12-25T08:25:14.987Z,96.05
2018-12-25T08:28:23.505Z,95.68
2018-12-25T08:31:11.430Z,95.62
2018-12-25T08:33:40.105Z,95.79
2018-12-25T08:39:21.816Z,96.29
2018-12-25T08:42:09.644Z,95.94
2018-12-25T08:44:38.228Z,95.90
2018-12-25T08:47:26.097Z,95.60
2018-12-25T08:50:13.879Z,95.86
2018-12-25T08:53:22.415Z,96.04
2018-12-25T08:55:51.001Z,96.36
2018-12-25T08:58:19.652Z,96.13
2018-12-25T09:00:48.265Z,96.26
2018-12-25T09:03:36.167Z,96.97
2018-12-25T09:06:24.133Z,97.04
2018-12-25T09:09:12.044Z,97.20
2018-12-25T09:11:40.670Z,97.83
2018-12-25T09:14:09.290Z,97.51
2018-12-25T09:16:57.364Z,97.68
2018-12-25T09:19:26.022Z,97.53
2018-12-25T09:22:13.897Z,97.89
2018-12-25T09:25:01.603Z,97.46
2018-12-25T09:27:30.222Z,97.72
2018-12-25T09:29:58.822Z,96.35
2018-12-25T09:32:46.846Z,96.51
2018-12-25T09:35:34.612Z,97.01
2018-12-25T09:38:22.412Z,96.78
2018-12-25T09:40:51.004Z,95.32
2018-12-25T09:43:19.612Z,96.08
2018-12-25T09:45:48.191Z,96.03
2018-12-25T09:48:36.135Z,95.45
2018-12-25T09:51:24.032Z,93.36
2018-12-25T09:53:52.647Z,93.84
2018-12-25T09:56:40.622Z,94.45
2018-12-25T09:59:28.434Z,94.75
2018-12-25T10:01:57.007Z,95.25
2018-12-25T10:04:44.888Z,94.64
2018-12-25T10:07:13.467Z,94.68
2018-12-25T10:12:35.316Z,93.36
2018-12-25T10:18:16.603Z,92.88
2018-12-25T10:20:45.215Z,92.27
2018-12-25T10:23:13.796Z,91.75
2018-12-25T10:28:16.399Z,91.17
2018-12-25T10:30:44.978Z,90.60
2018-12-25T10:33:13.593Z,91.22
2018-12-25T10:36:01.386Z,91.99
2018-12-25T10:41:23.461Z,91.11
2018-12-25T10:44:11.306Z,91.34
2018-12-25T10:46:59.200Z,91.54
2018-12-25T10:52:40.659Z,92.16
2018-12-25T10:55:28.545Z,91.19
2018-12-25T10:58:16.442Z,91.02
2018-12-25T11:01:25.112Z,90.46
2018-12-25T11:03:53.690Z,91.45
2018-12-25T11:06:41.587Z,90.44
2018-12-25T11:09:29.511Z,90.42
2018-12-25T11:11:58.090Z,87.76
2018-12-25T11:14:45.990Z,89.47
2018-12-25T11:17:33.997Z,89.21
2018-12-25T11:20:21.768Z,88.43
2018-12-25T11:23:09.709Z,88.40
2018-12-25T11:25:57.410Z,88.63
2018-12-25T11:28:26.092Z,88.50
2018-12-25T11:30:54.691Z,87.76
2018-12-25T11:33:42.605Z,88.06
2018-12-25T11:36:30.373Z,87.83
2018-12-25T11:38:58.987Z,86.41
2018-12-25T11:41:46.896Z,86.32
2018-12-25T11:46:49.996Z,86.78
2018-12-25T11:49:18.641Z,86.16
2018-12-25T11:51:47.223Z,87.13
2018-12-25T11:54:15.799Z,86.59
2018-12-25T11:57:03.607Z,85.73
2018-12-25T11:59:32.183Z,86.07
2018-12-25T12:02:00.791Z,85.81
2018-12-25T12:04:48.623Z,86.07
2018-12-25T12:07:36.644Z,86.04
2018-12-25T12:10:45.144Z,86.20
2018-12-25T12:13:53.690Z,85.88
2018-12-25T12:19:29.160Z,85.76
2018-12-25T12:21:59.457Z,85.13
2018-12-25T12:24:28.062Z,84.75
2018-12-25T12:26:56.648Z,83.52
2018-12-25T12:29:25.226Z,83.47
2018-12-25T12:31:53.835Z,83.41
2018-12-25T12:34:41.823Z,83.18
2018-12-25T12:40:44.131Z,82.76
2018-12-25T12:43:31.992Z,82.33
2018-12-25T12:46:00.573Z,81.16
2018-12-25T12:48:48.528Z,81.22
2018-12-25T12:51:36.322Z,81.74
2018-12-25T12:56:38.864Z,82.06
2018-12-25T13:02:20.255Z,81.70
2018-12-25T13:07:23.294Z,81.53
2018-12-25T13:10:11.112Z,80.73
2018-12-25T13:12:59.032Z,81.60
2018-12-25T13:15:27.652Z,81.51
2018-12-25T13:18:15.573Z,81.45
2018-12-25T13:24:04.373Z,81.83
2018-12-25T13:26:52.245Z,81.22
2018-12-25T13:29:20.835Z,80.78
2018-12-25T13:34:23.783Z,80.85
2018-12-25T13:37:11.837Z,81.06
2018-12-25T13:39:59.736Z,80.64
2018-12-25T13:42:47.565Z,80.59
2018-12-25T13:45:35.510Z,79.85
2018-12-25T13:48:23.296Z,80.46
2018-12-25T13:51:11.214Z,79.51
2018-12-25T13:53:39.839Z,78.95
2018-12-25T13:56:27.744Z,79.89
2018-12-25T13:59:15.743Z,79.74
2018-12-25T14:02:03.643Z,79.42
2018-12-25T14:04:51.513Z,79.11
2018-12-25T14:07:20.092Z,79.57
2018-12-25T14:09:48.666Z,79.76
2018-12-25T14:12:17.342Z,79.87
2018-12-25T14:15:05.174Z,79.40
2018-12-25T14:17:33.909Z,78.47
2018-12-25T14:20:21.808Z,78.33
2018-12-25T14:22:50.431Z,78.76
2018-12-25T14:25:38.271Z,76.80
2018-12-25T14:31:19.313Z,76.90
2018-12-25T14:33:47.935Z,78.31
2018-12-25T14:36:35.774Z,78.82
2018-12-25T14:39:44.382Z,79.06
2018-12-25T14:42:13.035Z,79.29
2018-12-25T14:45:00.992Z,79.37
2018-12-25T14:47:48.894Z,80.63
2018-12-25T14:53:10.320Z,81.97
2018-12-25T14:55:58.154Z,82.48
2018-12-25T14:58:26.864Z,81.24
2018-12-25T15:01:14.931Z,81.38
2018-12-25T15:03:43.540Z,82.33
2018-12-25T15:09:24.380Z,81.78
2018-12-25T15:14:46.120Z,83.14
2018-12-25T15:17:34.150Z,83.35
2018-12-25T15:20:02.794Z,83.21
2018-12-25T15:22:50.602Z,84.59
2018-12-25T15:25:38.501Z,85.14
2018-12-25T15:31:20.332Z,86.89
2018-12-25T15:36:41.938Z,88.02
2018-12-25T15:39:50.467Z,88.30
2018-12-25T15:42:19.111Z,88.16
2018-12-25T15:45:07.012Z,88.09
2018-12-25T15:47:54.916Z,88.36
2018-12-25T15:53:17.187Z,88.50
2018-12-25T15:56:05.088Z,88.82
2018-12-25T15:58:33.701Z,89.37
2018-12-25T16:01:21.544Z,90.32
2018-12-25T16:04:09.505Z,89.76
2018-12-25T16:06:57.261Z,90.19
2018-12-25T16:09:45.103Z,89.21
2018-12-25T16:12:34.727Z,89.57
2018-12-25T16:15:22.624Z,90.37
2018-12-25T16:17:51.203Z,90.83
2018-12-25T16:20:39.225Z,91.05
2018-12-25T16:23:07.804Z,91.49
2018-12-25T16:25:55.732Z,91.50
2018-12-25T16:28:43.635Z,92.41
2018-12-25T16:34:05.979Z,92.19
2018-12-25T16:36:53.856Z,92.56
2018-12-25T16:39:22.434Z,92.69
2018-12-25T16:41:51.011Z,92.53
2018-12-25T16:44:19.691Z,92.59
2018-12-25T16:46:48.274Z,92.99
2018-12-25T16:49:16.851Z,93.10
2018-12-25T16:54:40.364Z,93.21
2018-12-25T16:57:11.046Z,93.41
2018-12-25T16:59:58.662Z,94.36
2018-12-25T17:02:46.548Z,94.44
2018-12-25T17:05:15.123Z,93.69
2018-12-25T17:08:03.024Z,93.69
2018-12-25T17:10:50.927Z,93.53
2018-12-25T17:13:38.813Z,93.31
2018-12-25T17:16:26.582Z,93.74
2018-12-25T17:21:48.116Z,94.19
2018-12-25T17:27:10.810Z,94.23
2018-12-25T17:29:58.551Z,94.67
2018-12-25T17:32:27.133Z,94.80
2018-12-25T17:34:55.721Z,94.87
2018-12-25T17:37:43.535Z,95.13
2018-12-25T17:40:31.437Z,95.04
2018-12-25T17:43:00.047Z,95.90
2018-12-25T17:45:28.620Z,96.69
2018-12-25T17:48:16.765Z,95.80
2018-12-25T17:51:04.466Z,95.69
2018-12-25T17:53:52.272Z,96.55
2018-12-25T17:56:40.173Z,97.40
2018-12-25T17:59:08.821Z,96.81
2018-12-25T18:01:56.786Z,96.06
2018-12-25T18:04:44.735Z,95.35
2018-12-25T18:07:32.442Z,95.76
2018-12-25T18:12:35.437Z,96.42
2018-12-25T18:15:04.895Z,95.27
2018-12-25T18:17:33.469Z,95.22
2018-12-25T18:20:02.200Z,95.18
2018-12-25T18:22:30.891Z,95.63
2018-12-25T18:24:59.470Z,96.33
2018-12-25T18:27:28.089Z,95.97
2018-12-25T18:29:56.790Z,95.89
2018-12-25T18:32:25.648Z,96.45
2018-12-25T18:34:54.301Z,96.74
2018-12-25T18:37:22.951Z,96.96
2018-12-25T18:39:55.863Z,96.93
2018-12-25T18:42:24.505Z,96.87
2018-12-25T18:44:53.116Z,96.62
2018-12-25T18:47:21.700Z,96.65
2018-12-25T18:49:50.414Z,97.06
2018-12-25T18:52:18.993Z,97.04
2018-12-25T18:54:47.578Z,96.85
2018-12-25T18:57:16.192Z,96.53
2018-12-25T18:59:45.033Z,96.56
2018-12-25T19:02:13.646Z,96.60
2018-12-25T19:04:42.254Z,96.67
2018-12-25T19:07:10.848Z,97.40
2018-12-25T19:09:39.638Z,98.11
2018-12-25T19:12:08.375Z,97.60
2018-12-25T19:14:40.035Z,97.37
2018-12-25T19:17:08.646Z,97.18
2018-12-25T19:19:37.274Z,97.14
2018-12-25T19:22:05.851Z,97.15
2018-12-25T19:24:36.398Z,97.88
2018-12-25T19:27:05.049Z,97.68
2018-12-25T19:29:33.689Z,96.87
2018-12-25T19:32:02.517Z,97.15
2018-12-25T19:34:31.133Z,97.32
2018-12-25T19:36:59.751Z,97.56
2018-12-25T19:39:28.506Z,98.41
2018-12-25T19:41:57.159Z,96.62
2018-12-25T19:44:25.958Z,97.88
2018-12-25T19:46:54.603Z,97.93
2018-12-25T19:49:23.321Z,97.83
2018-12-25T19:51:52.078Z,97.34
2018-12-25T19:54:20.677Z,96.97
2018-12-25T19:56:49.405Z,96.91
2018-12-25T19:59:18.100Z,97.07
2018-12-25T20:01:46.853Z,96.82
2018-12-25T20:04:18.489Z,96.88
2018-12-25T20:07:21.949Z,96.98
2018-12-25T20:10:02.515Z,97.10
2018-12-25T20:13:00.334Z,97.03
2018-12-25T20:15:48.819Z,96.57
2018-12-25T20:18:35.599Z,96.83
2018-12-25T20:21:24.184Z,97.07
2018-12-25T20:24:21.293Z,96.48
2018-12-25T20:27:09.866Z,96.02
2018-12-25T20:29:55.265Z,96.47
2018-12-25T20:32:36.224Z,96.65
2018-12-25T20:35:13.621Z,96.85
2018-12-25T20:37:48.076Z,96.42
2018-12-25T20:40:28.050Z,96.77
2018-12-25T20:43:05.490Z,96.76
2018-12-25T20:45:40.076Z,96.65
2018-12-25T20:48:17.579Z,96.97
2018-12-25T20:50:49.218Z,96.30
2018-12-25T20:53:26.666Z,96.19
2018-12-25T20:56:18.116Z,95.59
2018-12-25T20:59:12.424Z,95.63
2018-12-25T21:02:17.536Z,96.47
2018-12-25T21:05:04.216Z,96.72
2018-12-25T21:07:44.825Z,96.59
2018-12-25T21:10:36.272Z,97.20
2018-12-25T21:13:23.061Z,97.42
2018-12-25T21:16:14.768Z,97.03
2018-12-25T21:19:02.955Z,97.01
2018-12-25T21:22:00.606Z,96.83
2018-12-25T21:25:09.673Z,97.44
2018-12-25T21:27:34.922Z,96.88
2018-12-25T21:30:05.656Z,96.36
2018-12-25T21:32:35.322Z,96.38
2018-12-25T21:35:12.991Z,96.68
2018-12-25T21:37:41.873Z,96.59
2018-12-25T21:40:10.842Z,96.35
2018-12-25T21:42:39.677Z,96.63
2018-12-25T21:45:08.580Z,96.80
2018-12-25T21:47:37.442Z,96.36
2018-12-25T21:50:08.413Z,95.63
2018-12-25T21:52:37.232Z,95.58
2018-12-25T21:55:08.729Z,95.67
2018-12-25T21:57:38.066Z,95.37
2018-12-25T22:00:09.956Z,96.62
2018-12-25T22:02:40.053Z,96.76
2018-12-25T22:05:09.005Z,95.82
2018-12-25T22:07:37.684Z,95.99
2018-12-25T22:10:07.628Z,95.12
2018-12-25T22:12:36.425Z,95.49
2018-12-25T22:15:07.055Z,96.53
2018-12-25T22:17:35.632Z,96.02
2018-12-25T22:20:16.409Z,96.60
2018-12-25T22:22:44.986Z,96.20
2018-12-25T22:25:13.749Z,96.19
2018-12-25T22:27:42.423Z,96.17
2018-12-25T22:30:11.081Z,97.09
2018-12-25T22:32:41.341Z,96.20
2018-12-25T22:35:09.924Z,95.47
2018-12-25T22:37:38.622Z,95.92
2018-12-25T22:40:07.273Z,95.28
2018-12-25T22:42:35.849Z,96.21
2018-12-25T22:45:06.027Z,95.88
2018-12-25T22:47:34.675Z,95.85
2018-12-25T22:50:03.482Z,95.18
2018-12-25T22:52:32.071Z,94.80
2018-12-25T22:55:00.717Z,93.98
2018-12-25T22:57:29.331Z,93.79
2018-12-25T22:59:57.989Z,94.38
2018-12-25T23:02:27.062Z,94.43
2018-12-25T23:04:55.656Z,94.74
2018-12-25T23:07:24.253Z,95.18
2018-12-25T23:09:52.910Z,95.16
2018-12-25T23:12:21.528Z,95.75
2018-12-25T23:14:50.221Z,95.21
2018-12-25T23:17:18.825Z,94.68
2018-12-25T23:19:47.416Z,94.82
2018-12-25T23:22:16.096Z,95.15
2018-12-25T23:24:44.770Z,94.43
2018-12-25T23:27:13.393Z,94.74
2018-12-25T23:29:41.992Z,94.10
2018-12-25T23:32:10.679Z,94.99
2018-12-25T23:34:39.294Z,95.51
2018-12-25T23:37:07.897Z,94.52
2018-12-25T23:39:36.529Z,95.74
2018-12-25T23:42:05.249Z,95.28
2018-12-25T23:44:33.909Z,95.95
2018-12-25T23:47:02.560Z,95.48
2018-12-25T23:49:31.216Z,96.40
2018-12-25T23:51:59.843Z,95.73
2018-12-25T23:54:28.452Z,95.58
2018-12-25T23:56:57.114Z,94.70
2018-12-25T23:59:25.779Z,93.71
